Time;durP1;ratioP1;P1;durP2;ratioP2;P2;SDS_P1;SDS_P2;PMS_P1;PMS_P2;Temp;Humidity;BMP_temperature;BMP_pressure;BME280_temperature;BME280_humidity;BME280_pressure;Samples;Min_cycle;Max_cycle;Signal;HPM_P1;HPM_P2
2022/01/03 00:01:45;;;;;;;29.55;13.13;;;;;;;0.46;100.00;95369.97;5062159;28;20075;-60
2022/01/03 00:04:14;;;;;;;32.13;16.90;;;;;;;0.38;100.00;95367.41;5064849;28;20057;-61
2022/01/03 00:06:41;;;;;;;28.95;14.52;;;;;;;0.32;100.00;95362.88;5066309;28;20469;-60
2022/01/03 00:09:08;;;;;;;27.27;13.75;;;;;;;0.35;100.00;95367.69;5066096;28;20529;-60
2022/01/03 00:11:36;;;;;;;26.08;13.00;;;;;;;0.35;100.00;95362.56;5062910;28;20072;-60
2022/01/03 00:14:03;;;;;;;22.98;12.02;;;;;;;0.34;100.00;95355.81;5060781;28;20441;-60
2022/01/03 00:16:30;;;;;;;20.23;11.63;;;;;;;0.41;100.00;95361.94;5067380;28;20497;-61
2022/01/03 00:18:57;;;;;;;33.35;11.45;;;;;;;0.40;100.00;95355.22;5065703;28;20048;-60
2022/01/03 00:21:33;;;;;;;19.80;11.68;;;;;;;0.35;100.00;95349.75;5064165;28;20438;-60
2022/01/03 00:24:08;;;;;;;22.17;11.23;;;;;;;0.40;100.00;95344.16;5063099;28;20036;-60
2022/01/03 00:26:37;;;;;;;26.92;13.00;;;;;;;0.34;100.00;95348.13;5065393;28;20048;-60
2022/01/03 00:29:09;;;;;;;20.23;11.13;;;;;;;0.29;100.00;95342.66;5072799;28;20048;-60
2022/01/03 00:31:40;;;;;;;25.33;12.82;;;;;;;0.06;100.00;95309.94;5059234;28;20045;-61
2022/01/03 00:34:10;;;;;;;22.80;12.25;;;;;;;0.23;100.00;95333.06;5063398;28;20119;-61
2022/01/03 00:36:37;;;;;;;25.13;12.02;;;;;;;0.18;100.00;95331.75;5063018;28;20084;-61
2022/01/03 00:39:07;;;;;;;29.70;12.90;;;;;;;0.13;100.00;95328.84;5061484;28;20068;-61
2022/01/03 00:41:40;;;;;;;30.35;13.88;;;;;;;0.14;100.00;95315.06;5060046;28;20036;-60
2022/01/03 00:44:08;;;;;;;22.67;11.85;;;;;;;0.14;100.00;95325.31;5060742;28;20049;-60
2022/01/03 00:46:35;;;;;;;31.50;13.55;;;;;;;0.08;100.00;95305.47;5061151;28;20127;-60
2022/01/03 00:49:04;;;;;;;67.28;29.50;;;;;;;0.11;100.00;95329.94;5059590;28;20066;-60
2022/01/03 00:51:32;;;;;;;39.83;19.20;;;;;;;0.04;100.00;95339.19;5060723;28;20128;-60
2022/01/03 00:53:59;;;;;;;25.60;12.05;;;;;;;0.05;100.00;95336.50;5061398;28;20516;-61
2022/01/03 00:56:33;;;;;;;27.33;10.60;;;;;;;0.02;100.00;95336.00;5062104;28;20046;-60
2022/01/03 00:59:11;;;;;;;27.10;13.73;;;;;;;-0.16;100.00;95334.31;5066424;28;20045;-61
2022/01/03 01:01:45;;;;;;;28.30;13.60;;;;;;;-0.12;100.00;95329.72;5065259;28;20052;-60
2022/01/03 01:04:15;;;;;;;24.88;12.70;;;;;;;-0.10;100.00;95317.53;5063667;28;20044;-61
2022/01/03 01:06:51;;;;;;;30.35;14.35;;;;;;;-0.05;100.00;95310.22;5068644;28;20044;-61
2022/01/03 01:09:19;;;;;;;25.67;11.02;;;;;;;-0.07;100.00;95314.69;5064522;28;20045;-60
2022/01/03 01:11:49;;;;;;;70.15;28.10;;;;;;;-0.20;100.00;95313.34;5069546;28;20493;-60
2022/01/03 01:14:17;;;;;;;51.50;22.00;;;;;;;-0.22;100.00;95315.25;5064121;28;20044;-60
2022/01/03 01:16:44;;;;;;;88.20;38.95;;;;;;;-0.23;100.00;95318.75;5069278;28;20123;-61
2022/01/03 01:19:12;;;;;;;39.80;20.63;;;;;;;-0.22;100.00;95310.13;5064840;28;20044;-58
2022/01/03 01:21:41;;;;;;;40.92;20.35;;;;;;;-0.27;100.00;95302.09;5065532;28;20045;-60
2022/01/03 01:24:08;;;;;;;37.70;20.77;;;;;;;-0.24;100.00;95306.91;5065805;28;20136;-60
2022/01/03 01:29:21;;;;;;;21.58;10.13;;;;;;;-0.31;100.00;95305.91;5063842;28;20070;-61
2022/01/03 01:31:51;;;;;;;22.40;10.48;;;;;;;-0.31;100.00;95297.44;5065341;28;20082;-60
2022/01/03 01:34:27;;;;;;;27.85;10.98;;;;;;;-0.29;100.00;95301.47;5071290;28;20041;-60
2022/01/03 01:36:59;;;;;;;23.77;12.70;;;;;;;-0.27;100.00;95296.16;5064223;28;20537;-60
2022/01/03 01:39:29;;;;;;;20.63;10.70;;;;;;;-0.21;100.00;95301.47;5064703;28;20098;-61
2022/01/03 01:42:03;;;;;;;19.83;9.85;;;;;;;-0.22;100.00;95297.34;5063687;28;20068;-61
2022/01/03 01:44:36;;;;;;;22.40;10.13;;;;;;;-0.23;100.00;95298.28;5066169;28;20039;-61
2022/01/03 01:47:07;;;;;;;17.92;8.75;;;;;;;-0.23;100.00;95303.41;5064192;28;20059;-61
2022/01/03 01:49:56;;;;;;;19.15;9.18;;;;;;;-0.15;100.00;95294.16;5062241;28;20051;-61
2022/01/03 01:52:25;;;;;;;32.63;12.68;;;;;;;-0.15;100.00;95283.91;5065612;28;20109;-61
2022/01/03 01:55:08;;;;;;;22.83;11.30;;;;;;;-0.08;100.00;95282.34;5068748;28;20040;-61
2022/01/03 01:57:54;;;;;;;23.50;11.45;;;;;;;-0.03;100.00;95277.56;5064321;28;20575;-61
2022/01/03 02:00:27;;;;;;;22.80;11.65;;;;;;;-0.05;100.00;95280.28;5062448;28;20067;-61
2022/01/03 02:03:24;;;;;;;25.45;11.75;;;;;;;-0.10;100.00;95281.69;5067109;28;20049;-61
2022/01/03 02:06:49;;;;;;;20.08;11.02;;;;;;;-0.13;100.00;95276.88;5062812;28;20056;-61
2022/01/03 02:09:43;;;;;;;16.10;8.30;;;;;;;-0.24;100.00;95271.06;5053651;28;20072;-61
2022/01/03 02:12:16;;;;;;;19.88;9.10;;;;;;;-0.33;100.00;95271.19;5069935;28;20083;-61
2022/01/03 02:14:44;;;;;;;17.83;8.95;;;;;;;-0.42;100.00;95262.66;5067301;28;20143;-61
2022/01/03 02:17:14;;;;;;;17.98;8.93;;;;;;;-0.43;100.00;95251.63;5064306;28;20055;-61
2022/01/03 02:19:41;;;;;;;15.32;7.53;;;;;;;-0.45;100.00;95245.88;5064262;28;20142;-61
2022/01/03 02:22:10;;;;;;;20.50;9.13;;;;;;;-0.42;100.00;95242.97;5062466;28;20048;-61
2022/01/03 02:24:47;;;;;;;21.38;10.50;;;;;;;-0.36;100.00;95241.59;5066524;28;20078;-61
2022/01/03 02:27:14;;;;;;;18.15;9.45;;;;;;;-0.36;100.00;95241.59;5086048;28;20048;-61
2022/01/03 02:29:43;;;;;;;21.60;8.88;;;;;;;-0.38;100.00;95238.34;5063851;28;20410;-61
2022/01/03 02:32:17;;;;;;;20.63;9.18;;;;;;;-0.38;100.00;95243.47;5062273;28;20051;-61
2022/01/03 02:34:44;;;;;;;23.02;11.25;;;;;;;-0.31;100.00;95238.56;5062620;28;20143;-61
2022/01/03 02:37:12;;;;;;;28.70;12.48;;;;;;;-0.28;100.00;95239.06;5062869;28;20033;-61
2022/01/03 02:39:39;;;;;;;25.05;10.18;;;;;;;-0.21;100.00;95239.25;5064462;28;20110;-61
2022/01/03 02:42:06;;;;;;;23.27;10.82;;;;;;;-0.16;100.00;95226.78;5066653;28;20162;-61
2022/01/03 02:44:34;;;;;;;21.98;11.43;;;;;;;-0.10;100.00;95226.16;5062417;28;20468;-61
2022/01/03 02:47:02;;;;;;;22.00;9.73;;;;;;;-0.12;100.00;95227.28;5061517;28;20495;-61
2022/01/03 02:49:29;;;;;;;20.55;10.88;;;;;;;-0.08;100.00;95218.31;5062671;28;20040;-61
2022/01/03 02:51:56;;;;;;;20.52;10.48;;;;;;;-0.13;100.00;95215.44;5062864;28;20110;-61
2022/01/03 02:54:23;;;;;;;25.45;11.20;;;;;;;-0.14;100.00;95213.84;5063677;28;20044;-61
2022/01/03 02:56:50;;;;;;;27.20;11.93;;;;;;;-0.05;100.00;95218.81;5065076;28;20048;-61
2022/01/03 02:59:21;;;;;;;22.63;11.73;;;;;;;-0.10;100.00;95220.25;5063781;28;20114;-61
2022/01/03 03:01:48;;;;;;;34.53;15.20;;;;;;;-0.13;100.00;95216.22;5068071;28;20524;-60
2022/01/03 03:04:18;;;;;;;27.65;14.38;;;;;;;-0.20;100.00;95216.06;5062460;28;20048;-61
2022/01/03 03:06:45;;;;;;;23.67;11.70;;;;;;;-0.13;100.00;95212.88;5062383;28;20040;-61
2022/01/03 03:09:14;;;;;;;30.10;13.85;;;;;;;-0.20;100.00;95205.81;5065345;28;20048;-61
2022/01/03 03:11:41;;;;;;;28.20;13.90;;;;;;;-0.18;100.00;95203.09;5062026;28;20064;-61
2022/01/03 03:14:08;;;;;;;25.30;12.73;;;;;;;-0.18;100.00;95207.41;5061692;28;20060;-61
2022/01/03 03:16:36;;;;;;;24.50;12.55;;;;;;;-0.11;100.00;95203.25;5068161;28;20421;-61
2022/01/03 03:19:03;;;;;;;22.70;9.82;;;;;;;-0.03;100.00;95218.66;5068990;28;20044;-61
2022/01/03 03:21:31;;;;;;;24.65;10.52;;;;;;;-0.01;100.00;95209.06;5061732;28;20063;-61
2022/01/03 03:23:58;;;;;;;22.52;10.30;;;;;;;0.05;100.00;95208.44;5067649;28;20045;-61
2022/01/03 03:26:26;;;;;;;25.13;14.40;;;;;;;0.04;100.00;95211.97;5060708;28;20044;-61
2022/01/03 03:28:54;;;;;;;24.50;11.90;;;;;;;0.08;100.00;95213.25;5060428;28;20142;-61
2022/01/03 03:31:22;;;;;;;29.40;12.30;;;;;;;0.11;100.00;95207.81;5060790;28;20544;-61
2022/01/03 03:33:49;;;;;;;22.88;11.15;;;;;;;0.15;100.00;95198.84;5060851;28;20049;-61
2022/01/03 03:36:17;;;;;;;26.13;13.35;;;;;;;0.13;100.00;95200.78;5061091;28;20063;-61
2022/01/03 03:38:44;;;;;;;38.42;15.77;;;;;;;0.26;100.00;95214.91;5060832;28;20783;-61
2022/01/03 03:41:15;;;;;;;29.58;13.50;;;;;;;0.20;100.00;95216.34;5062438;28;20056;-61
2022/01/03 03:43:47;;;;;;;32.80;15.68;;;;;;;0.16;100.00;95203.03;5061536;28;20110;-61
2022/01/03 03:46:14;;;;;;;35.78;18.67;;;;;;;0.10;100.00;95201.09;5063545;28;20768;-61
2022/01/03 03:48:41;;;;;;;44.50;21.65;;;;;;;0.15;100.00;95209.09;5062719;28;20040;-61
2022/01/03 03:51:12;;;;;;;41.15;20.25;;;;;;;0.14;100.00;95202.38;5060825;28;20434;-61
2022/01/03 03:53:39;;;;;;;35.30;16.58;;;;;;;0.16;100.00;95208.16;5077831;28;20054;-61
2022/01/03 03:56:06;;;;;;;41.20;15.05;;;;;;;0.16;100.00;95205.59;5062260;28;20048;-61
2022/01/03 03:58:35;;;;;;;23.52;12.13;;;;;;;0.11;100.00;95207.81;5062964;28;20583;-61
2022/01/03 04:01:02;;;;;;;25.02;11.95;;;;;;;0.10;100.00;95201.09;5063108;28;20072;-61
2022/01/03 04:03:45;;;;;;;25.15;13.52;;;;;;;0.09;100.00;95194.38;5060372;28;20153;-61
2022/01/03 04:06:14;;;;;;;46.75;23.25;;;;;;;0.08;100.00;95187.63;5060699;28;20514;-61
2022/01/03 04:08:44;;;;;;;54.85;22.48;;;;;;;0.04;100.00;95185.53;5065950;28;20494;-61
2022/01/03 04:11:11;;;;;;;50.70;23.73;;;;;;;0.04;100.00;95188.91;5062184;28;20052;-61
2022/01/03 04:13:37;;;;;;;40.13;19.00;;;;;;;-0.01;100.00;95199.63;5065031;28;20045;-65
2022/01/03 04:16:07;;;;;;;56.15;23.42;;;;;;;-0.03;100.00;95203.31;5073739;28;20048;-65
2022/01/03 04:18:34;;;;;;;37.38;17.95;;;;;;;-0.06;100.00;95206.16;5065336;28;20049;-64
2022/01/03 04:21:02;;;;;;;39.47;18.08;;;;;;;-0.08;100.00;95192.72;5069492;28;20071;-65
2022/01/03 04:23:29;;;;;;;29.48;14.50;;;;;;;-0.08;100.00;95208.09;5069607;28;20068;-64
2022/01/03 04:25:56;;;;;;;34.45;16.23;;;;;;;-0.10;100.00;95210.00;5069087;28;20424;-64
2022/01/03 04:28:23;;;;;;;42.70;16.52;;;;;;;-0.03;100.00;95200.75;5067321;28;20657;-65
2022/01/03 04:30:51;;;;;;;44.97;18.63;;;;;;;-0.06;100.00;95191.59;5072954;28;20040;-65
2022/01/03 04:33:18;;;;;;;39.38;18.08;;;;;;;-0.05;100.00;95187.31;5066441;28;20056;-65
2022/01/03 04:35:46;;;;;;;36.75;13.93;;;;;;;-0.02;100.00;95197.22;5071035;28;20505;-65
2022/01/03 04:38:14;;;;;;;37.67;13.75;;;;;;;-0.06;100.00;95201.03;5068207;28;20056;-65
2022/01/03 04:40:41;;;;;;;40.47;15.05;;;;;;;-0.10;100.00;95199.75;5078471;28;20040;-64
2022/01/03 04:43:07;;;;;;;32.00;13.55;;;;;;;-0.22;100.00;95192.38;5070826;28;20079;-64
2022/01/03 04:45:34;;;;;;;35.65;15.27;;;;;;;-0.16;100.00;95195.25;5083636;28;20512;-64
2022/01/03 04:48:02;;;;;;;41.72;17.08;;;;;;;-0.18;100.00;95197.16;5071997;28;20099;-63
2022/01/03 04:50:29;;;;;;;40.28;17.73;;;;;;;-0.18;100.00;95209.97;5068932;28;20048;-64
2022/01/03 04:52:56;;;;;;;40.85;18.42;;;;;;;-0.23;100.00;95216.34;5073325;28;20552;-64
2022/01/03 04:55:23;;;;;;;39.55;17.42;;;;;;;-0.20;100.00;95221.19;5075050;28;20057;-64
2022/01/03 04:57:50;;;;;;;41.95;17.42;;;;;;;-0.27;100.00;95220.19;5066066;28;20136;-64
2022/01/03 05:00:17;;;;;;;51.92;21.30;;;;;;;-0.25;100.00;95218.28;5065695;28;20071;-64
2022/01/03 05:02:46;;;;;;;54.47;20.20;;;;;;;-0.33;100.00;95228.47;5066304;28;20064;-64
2022/01/03 05:05:14;;;;;;;63.20;23.08;;;;;;;-0.32;100.00;95235.19;5069671;28;20091;-64
2022/01/03 05:07:41;;;;;;;53.20;21.60;;;;;;;-0.31;100.00;95229.09;5063263;28;20076;-64
2022/01/03 05:10:10;;;;;;;47.50;19.23;;;;;;;-0.29;100.00;95211.88;5072830;28;20460;-64
2022/01/03 05:12:38;;;;;;;41.15;16.25;;;;;;;-0.28;100.00;95212.66;5073814;28;20513;-64
2022/01/03 05:15:06;;;;;;;36.08;13.85;;;;;;;-0.24;100.00;95219.88;5066020;28;20069;-64
2022/01/03 05:17:33;;;;;;;50.33;17.17;;;;;;;-0.22;100.00;95222.28;5065932;28;20052;-64
2022/01/03 05:20:00;;;;;;;44.47;16.83;;;;;;;-0.30;100.00;95230.72;5065112;28;20494;-64
2022/01/03 05:22:29;;;;;;;40.03;15.45;;;;;;;-0.28;100.00;95218.56;5066232;28;21001;-64
2022/01/03 05:24:56;;;;;;;34.50;16.48;;;;;;;-0.27;100.00;95220.19;5073000;28;20047;-64
2022/01/03 05:27:23;;;;;;;44.95;20.88;;;;;;;-0.26;100.00;95216.66;5063628;28;20119;-64
2022/01/03 05:29:50;;;;;;;49.42;20.33;;;;;;;-0.25;100.00;95202.91;5066567;28;20067;-64
2022/01/03 05:32:17;;;;;;;37.85;17.73;;;;;;;-0.24;100.00;95201.94;5064481;28;20072;-64
2022/01/03 05:34:44;;;;;;;48.83;22.58;;;;;;;-0.18;100.00;95202.28;5064729;28;20518;-63
2022/01/03 05:37:11;;;;;;;46.88;20.33;;;;;;;-0.22;100.00;95207.72;5066599;28;20063;-64
2022/01/03 05:39:38;;;;;;;31.23;15.88;;;;;;;-0.26;100.00;95201.31;5063498;28;20139;-64
2022/01/03 05:42:06;;;;;;;44.75;18.17;;;;;;;-0.31;100.00;95198.41;5063704;28;20036;-64
2022/01/03 05:44:33;;;;;;;47.67;20.95;;;;;;;-0.33;100.00;95200.31;5066344;28;20071;-64
2022/01/03 05:47:00;;;;;;;45.13;20.15;;;;;;;-0.33;100.00;95215.66;5067548;28;20036;-64
2022/01/03 05:49:27;;;;;;;43.50;18.70;;;;;;;-0.32;100.00;95209.59;5067341;28;20043;-64
2022/01/03 05:51:54;;;;;;;40.20;19.27;;;;;;;-0.34;100.00;95198.72;5063117;28;20044;-64
2022/01/03 05:54:22;;;;;;;50.55;23.77;;;;;;;-0.38;100.00;95212.75;5062816;28;22028;-64
2022/01/03 05:56:49;;;;;;;45.92;18.98;;;;;;;-0.43;100.00;95194.53;5062568;28;20465;-63
2022/01/03 05:59:16;;;;;;;35.03;17.00;;;;;;;-0.42;100.00;95202.03;5067519;28;20105;-64
2022/01/03 06:01:43;;;;;;;35.08;17.88;;;;;;;-0.43;100.00;95203.00;5063940;28;20038;-64
2022/01/03 06:04:24;;;;;;;36.25;15.13;;;;;;;-0.41;100.00;95205.41;5064536;28;20507;-64
2022/01/03 06:07:07;;;;;;;27.80;14.25;;;;;;;-0.42;100.00;95209.72;5063848;28;20094;-64
2022/01/03 06:09:39;;;;;;;24.75;12.20;;;;;;;-0.38;100.00;95217.88;5062321;28;20045;-64
2022/01/03 06:12:07;;;;;;;27.77;14.45;;;;;;;-0.42;100.00;95216.59;5064487;28;20130;-64
2022/01/03 06:14:39;;;;;;;80.10;30.50;;;;;;;-0.41;100.00;95202.84;5062610;28;20047;-63
2022/01/03 06:17:06;;;;;;;77.35;29.75;;;;;;;-0.38;100.00;95202.53;5065454;28;20110;-63
2022/01/03 06:19:34;;;;;;;41.13;19.23;;;;;;;-0.35;100.00;95217.59;5066867;28;21953;-63
2022/01/03 06:22:03;;;;;;;35.70;14.65;;;;;;;-0.30;100.00;95220.50;5062887;28;20094;-63
2022/01/03 06:24:31;;;;;;;24.60;13.63;;;;;;;-0.32;100.00;95201.13;5062611;28;20049;-64
2022/01/03 06:26:58;;;;;;;31.00;14.55;;;;;;;-0.20;100.00;95216.06;5064113;28;20387;-64
2022/01/03 06:29:25;;;;;;;23.92;12.98;;;;;;;-0.16;100.00;95218.28;5064513;28;20051;-64
2022/01/03 06:31:52;;;;;;;96.50;32.90;;;;;;;-0.07;100.00;95219.94;5063081;28;20114;-64
2022/01/03 06:34:21;;;;;;;120.13;43.42;;;;;;;0.00;100.00;95226.06;5062536;28;20060;-64
2022/01/03 06:36:49;;;;;;;79.25;38.42;;;;;;;0.03;100.00;95225.72;5067223;28;21945;-64
2022/01/03 06:39:17;;;;;;;117.40;47.75;;;;;;;0.10;100.00;95223.34;5061646;28;20044;-64
2022/01/03 06:41:45;;;;;;;179.25;71.60;;;;;;;0.13;100.00;95223.84;5064060;28;20177;-64
2022/01/03 06:44:13;;;;;;;117.30;50.38;;;;;;;0.22;100.00;95228.97;5063662;28;20048;-64
2022/01/03 06:46:41;;;;;;;69.72;32.65;;;;;;;0.31;100.00;95235.72;5065795;28;23155;-64
2022/01/03 06:49:08;;;;;;;39.60;19.67;;;;;;;0.37;100.00;95242.78;5073177;28;20044;-64
2022/01/03 06:51:37;;;;;;;35.65;15.95;;;;;;;0.43;100.00;95239.56;5060929;28;20041;-64
2022/01/03 06:54:14;;;;;;;31.63;13.80;;;;;;;0.45;100.00;95230.00;5064413;28;20044;-64
2022/01/03 06:56:49;;;;;;;33.85;13.63;;;;;;;0.55;100.00;95240.88;5061557;28;20541;-64
2022/01/03 06:59:16;;;;;;;33.28;15.88;;;;;;;0.64;100.00;95223.75;5061454;28;20074;-64
2022/01/03 07:01:44;;;;;;;24.45;13.68;;;;;;;0.71;100.00;95218.78;5067948;28;20039;-64
2022/01/03 07:04:11;;;;;;;44.47;20.40;;;;;;;0.86;100.00;95214.59;5067974;28;20518;-64
2022/01/03 07:06:38;;;;;;;57.35;25.95;;;;;;;1.00;100.00;95222.63;5066024;28;20044;-64
2022/01/03 07:09:07;;;;;;;74.50;33.17;;;;;;;1.13;100.00;95225.50;5064813;28;20078;-64
2022/01/03 07:11:34;;;;;;;68.28;32.10;;;;;;;1.26;100.00;95218.13;5064638;28;20060;-64
2022/01/03 07:19:35;;;;;;;59.22;29.77;;;;;;;1.66;100.00;95211.25;5063603;28;20422;-64
2022/01/03 07:22:05;;;;;;;63.08;30.20;;;;;;;1.76;100.00;95207.69;5062664;28;20032;-64
2022/01/03 07:24:32;;;;;;;50.20;25.48;;;;;;;1.76;100.00;95202.56;5069292;28;20043;-63
2022/01/03 07:27:02;;;;;;;54.13;24.20;;;;;;;1.81;100.00;95184.88;5063013;28;20128;-63
2022/01/03 07:29:29;;;;;;;46.53;25.00;;;;;;;1.88;100.00;95196.09;5069331;28;20044;-63
2022/01/03 07:31:56;;;;;;;38.42;19.85;;;;;;;1.90;100.00;95184.66;5066760;28;20048;-62
2022/01/03 07:34:24;;;;;;;45.35;21.60;;;;;;;1.98;100.00;95196.69;5068033;28;20513;-63
2022/01/03 07:36:51;;;;;;;35.60;16.40;;;;;;;2.08;100.00;95192.13;5060358;28;20048;-64
2022/01/03 07:39:18;;;;;;;32.80;17.73;;;;;;;2.10;100.00;95177.34;5063076;28;20051;-63
2022/01/03 07:41:45;;;;;;;49.08;20.02;;;;;;;2.31;100.00;95181.09;5062747;28;20043;-63
2022/01/03 07:44:12;;;;;;;44.60;21.08;;;;;;;2.51;100.00;95185.78;5065099;28;20055;-63
2022/01/03 07:46:39;;;;;;;48.13;22.10;;;;;;;2.70;100.00;95195.56;5057116;28;20498;-63
2022/01/03 07:49:06;;;;;;;38.08;19.02;;;;;;;2.82;100.00;95204.47;5060610;28;20041;-63
2022/01/03 07:51:32;;;;;;;43.30;20.25;;;;;;;2.98;100.00;95202.75;5056547;28;20040;-63
2022/01/03 07:53:59;;;;;;;43.67;21.83;;;;;;;3.13;100.00;95211.28;5056959;28;20032;-63
2022/01/03 07:56:26;;;;;;;136.07;52.80;;;;;;;3.27;100.00;95206.34;5057610;28;20528;-63
2022/01/03 07:58:53;;;;;;;93.07;43.15;;;;;;;3.34;100.00;95196.97;5059329;28;20032;-63
2022/01/03 08:01:20;;;;;;;61.92;29.70;;;;;;;3.43;100.00;95185.59;5063989;28;20873;-62
2022/01/03 08:03:47;;;;;;;62.92;30.23;;;;;;;3.47;100.00;95186.03;5062241;28;20436;-63
2022/01/03 08:06:34;;;;;;;50.65;24.70;;;;;;;3.47;100.00;95186.81;5067076;28;20520;-63
2022/01/03 08:09:01;;;;;;;53.15;26.38;;;;;;;3.61;100.00;95192.97;5067807;28;20879;-63
2022/01/03 08:11:28;;;;;;;58.45;26.52;;;;;;;3.79;100.00;95192.59;5063208;28;20052;-63
2022/01/03 08:13:55;;;;;;;46.28;21.08;;;;;;;4.00;100.00;95194.44;5064425;28;20232;-63
2022/01/03 08:16:22;;;;;;;50.55;24.05;;;;;;;4.20;100.00;95197.25;5068271;28;20055;-63
2022/01/03 08:18:49;;;;;;;36.38;18.65;;;;;;;4.32;100.00;95203.53;5068701;28;21340;-63
2022/01/03 08:21:16;;;;;;;39.22;19.35;;;;;;;4.43;100.00;95196.25;5075632;28;20036;-63
2022/01/03 08:23:43;;;;;;;40.90;19.55;;;;;;;4.60;100.00;95200.22;5069032;28;20037;-63
2022/01/03 08:26:10;;;;;;;47.80;23.23;;;;;;;4.70;100.00;95198.13;5073419;28;20045;-63
2022/01/03 08:28:42;;;;;;;38.83;18.15;;;;;;;4.93;100.00;95212.59;5071758;28;20051;-63
2022/01/03 08:31:09;;;;;;;47.08;21.88;;;;;;;5.09;100.00;95217.50;5065762;28;20156;-63
2022/01/03 08:33:36;;;;;;;82.72;44.13;;;;;;;5.31;100.00;95209.72;5075736;28;20135;-63
2022/01/03 08:36:03;;;;;;;37.35;22.23;;;;;;;5.49;100.00;95199.72;5070425;28;20048;-62
2022/01/03 08:38:30;;;;;;;34.35;20.33;;;;;;;5.61;100.00;95191.41;5077581;28;20569;-63
2022/01/03 08:40:57;;;;;;;31.73;15.32;;;;;;;5.73;100.00;95195.06;5070626;28;20048;-63
2022/01/03 08:43:24;;;;;;;32.95;15.07;;;;;;;5.87;100.00;95199.31;5064511;28;21067;-63
2022/01/03 08:45:51;;;;;;;29.70;14.18;;;;;;;5.96;100.00;95191.41;5064109;28;20484;-63
2022/01/03 08:48:18;;;;;;;27.90;14.77;;;;;;;6.14;100.00;95194.28;5076799;28;20032;-63
2022/01/03 08:50:45;;;;;;;30.23;14.65;;;;;;;6.34;100.00;95193.53;5068513;28;20517;-63
2022/01/03 08:53:12;;;;;;;24.20;13.32;;;;;;;6.48;100.00;95177.84;5071697;28;20048;-63
2022/01/03 08:55:40;;;;;;;23.95;10.50;;;;;;;6.44;100.00;95173.25;5075936;28;20052;-63
2022/01/03 08:58:07;;;;;;;23.25;13.07;;;;;;;6.49;100.00;95160.53;5075689;28;20552;-63
2022/01/03 09:00:34;;;;;;;24.50;12.73;;;;;;;6.46;100.00;95145.38;5077398;28;20041;-62
2022/01/03 09:03:02;;;;;;;20.75;12.05;;;;;;;6.52;100.00;95152.38;5077887;28;20036;-63
2022/01/03 09:05:29;;;;;;;23.92;13.00;;;;;;;6.51;100.00;95148.19;5078374;28;20044;-63
2022/01/03 09:07:56;;;;;;;26.42;13.23;;;;;;;6.46;100.00;95150.56;5073254;28;20040;-62
2022/01/03 09:10:24;;;;;;;31.02;15.43;;;;;;;6.55;100.00;95144.19;5075695;28;20051;-62
2022/01/03 09:12:50;;;;;;;22.98;12.05;;;;;;;6.54;100.00;95152.97;5072880;28;20036;-62
2022/01/03 09:15:17;;;;;;;24.92;13.82;;;;;;;6.57;100.00;95173.28;5074647;28;20039;-63
2022/01/03 09:17:44;;;;;;;31.88;14.95;;;;;;;6.61;100.00;95158.13;5067037;28;20044;-63
2022/01/03 09:20:12;;;;;;;32.22;17.75;;;;;;;6.81;100.00;95153.00;5069552;28;20530;-63
2022/01/03 09:22:43;;;;;;;26.48;13.95;;;;;;;6.99;100.00;95142.81;5074758;28;20068;-63
2022/01/03 09:30:41;;;;;;;25.58;13.25;;;;;;;7.60;100.00;95120.19;5063279;28;20052;-64
2022/01/03 09:33:08;;;;;;;27.17;15.05;;;;;;;7.87;100.00;95123.47;5067519;28;20044;-64
2022/01/03 09:35:36;;;;;;;21.83;12.20;;;;;;;7.99;98.91;95121.00;5065671;28;20052;-61
2022/01/03 09:38:03;;;;;;;22.55;12.63;;;;;;;7.85;97.10;95113.31;5068200;28;20047;-60
2022/01/03 09:40:31;;;;;;;23.55;12.77;;;;;;;7.94;97.38;95115.66;5066175;28;20035;-64
2022/01/03 09:43:00;;;;;;;21.60;13.13;;;;;;;8.02;97.12;95102.44;5076394;28;20536;-63
2022/01/03 09:45:33;;;;;;;26.40;14.55;;;;;;;8.23;97.51;95103.94;5073080;28;20482;-64
2022/01/03 09:48:03;;;;;;;26.75;13.05;;;;;;;8.29;96.78;95103.09;5075413;28;20425;-64
2022/01/03 09:50:33;;;;;;;22.30;12.85;;;;;;;8.38;96.17;95096.63;5066106;28;20432;-64
2022/01/03 09:53:03;;;;;;;25.33;13.93;;;;;;;8.44;94.66;95095.03;5070695;28;20032;-63
2022/01/03 09:55:31;;;;;;;29.02;14.60;;;;;;;8.59;95.98;95087.75;5077490;28;20047;-64
2022/01/03 09:57:59;;;;;;;28.30;14.00;;;;;;;8.72;94.61;95091.25;5076295;28;20417;-64
2022/01/03 10:00:27;;;;;;;23.60;13.57;;;;;;;8.57;93.31;95089.75;5081713;28;20052;-64
2022/01/03 10:02:54;;;;;;;26.67;12.68;;;;;;;8.78;94.15;95080.78;5081261;28;20516;-64
2022/01/03 10:05:22;;;;;;;22.00;11.25;;;;;;;8.91;93.01;95079.91;5073159;28;20101;-64
2022/01/03 10:07:49;;;;;;;25.52;13.15;;;;;;;9.03;92.91;95071.38;5078212;28;20044;-62
2022/01/03 10:10:17;;;;;;;21.08;11.35;;;;;;;8.82;89.82;95065.56;5075559;28;20074;-60
2022/01/03 10:12:43;;;;;;;22.77;12.75;;;;;;;8.59;91.64;95064.38;5072113;28;20060;-64
2022/01/03 10:15:10;;;;;;;29.35;15.68;;;;;;;8.75;90.64;95054.44;5078904;28;20136;-64
2022/01/03 10:17:41;;;;;;;23.63;12.38;;;;;;;8.89;92.50;95045.53;5077775;28;20599;-64
2022/01/03 10:20:10;;;;;;;25.15;13.18;;;;;;;8.83;90.20;95048.97;5076508;28;20045;-64
2022/01/03 10:22:39;;;;;;;21.55;11.73;;;;;;;9.03;90.65;95035.00;5082146;28;20032;-61
2022/01/03 10:25:33;;;;;;;22.38;12.95;;;;;;;9.28;89.87;95029.75;5077331;28;20080;-64
2022/01/03 10:28:00;;;;;;;29.13;15.37;;;;;;;9.44;89.79;95036.16;5072884;28;20082;-64
2022/01/03 10:30:38;;;;;;;27.58;14.20;;;;;;;9.63;88.45;95032.50;5076746;28;20501;-62
2022/01/03 10:33:08;;;;;;;21.92;11.32;;;;;;;9.53;85.68;95030.44;5082729;28;20101;-62
2022/01/03 10:35:47;;;;;;;24.42;12.48;;;;;;;9.62;87.49;95023.13;5079217;28;20046;-62
2022/01/03 10:38:40;;;;;;;26.33;13.30;;;;;;;9.73;88.38;95001.56;5078734;28;20043;-61
2022/01/03 10:41:20;;;;;;;30.42;18.27;;;;;;;9.63;88.83;95009.09;5073411;28;20044;-63
2022/01/03 10:43:49;;;;;;;31.25;15.75;;;;;;;9.56;87.57;94998.81;5077746;28;20908;-64
2022/01/03 10:46:19;;;;;;;39.83;19.50;;;;;;;9.67;88.35;94999.88;5079196;28;20143;-64
2022/01/03 10:48:47;;;;;;;34.80;16.15;;;;;;;9.74;87.44;94990.16;5078193;28;20048;-63
2022/01/03 10:51:22;;;;;;;28.85;14.48;;;;;;;9.83;86.95;94987.22;5072699;28;20052;-64
2022/01/03 10:53:51;;;;;;;22.08;11.88;;;;;;;9.36;87.18;94975.66;5079280;28;20055;-64
2022/01/03 10:56:29;;;;;;;22.23;12.30;;;;;;;9.42;86.91;94975.78;5075071;28;20044;-64
2022/01/03 10:59:23;;;;;;;53.40;24.77;;;;;;;9.44;87.90;94963.38;5079736;28;20437;-64
2022/01/03 11:02:12;;;;;;;23.60;12.57;;;;;;;9.47;87.09;94957.72;5076554;28;20037;-64
2022/01/03 11:04:57;;;;;;;20.52;10.68;;;;;;;9.53;87.01;94956.84;5077734;28;20073;-64
2022/01/03 11:13:10;;;;;;;20.10;12.52;;;;;;;9.34;87.18;94959.47;5032739;28;20034;-63
2022/01/03 11:15:40;;;;;;;24.83;13.55;;;;;;;9.16;88.51;94941.31;5033221;28;20124;-64
2022/01/03 11:18:21;;;;;;;45.75;19.10;;;;;;;9.33;89.77;94951.91;5031579;28;20054;-64
2022/01/03 11:21:00;;;;;;;22.65;12.85;;;;;;;9.19;88.63;94946.09;5033908;28;20055;-64
2022/01/03 11:23:32;;;;;;;74.80;35.72;;;;;;;9.26;88.77;94941.59;5042101;28;20036;-64
2022/01/03 11:26:11;;;;;;;137.77;51.60;;;;;;;9.53;88.70;94936.06;5036484;28;20039;-64
2022/01/03 11:28:42;;;;;;;76.38;33.95;;;;;;;9.89;87.50;94931.72;5039479;28;20529;-64
2022/01/03 11:31:15;;;;;;;53.70;25.85;;;;;;;10.29;84.58;94928.47;5030603;28;20052;-64
2022/01/03 11:33:42;;;;;;;20.30;10.88;;;;;;;10.63;84.04;94919.09;5033343;28;20048;-62
2022/01/03 11:36:30;;;;;;;42.63;20.10;;;;;;;10.72;81.86;94919.53;5038061;28;20045;-64
2022/01/03 11:39:04;;;;;;;19.08;11.60;;;;;;;10.85;81.52;94921.09;5035844;28;20041;-64
2022/01/03 11:41:32;;;;;;;19.30;10.52;;;;;;;10.92;80.70;94921.00;5033428;28;20090;-64
2022/01/03 11:44:00;;;;;;;28.40;15.55;;;;;;;10.98;81.11;94912.22;5036292;28;20048;-64
2022/01/03 11:46:28;;;;;;;23.63;11.80;;;;;;;10.85;79.40;94906.25;5034207;28;20041;-64